createdAt,value
2019-04-10T00:01:31.996Z,14.97
2019-04-10T00:04:17.696Z,12.97
2019-04-10T00:07:12.770Z,11.90
2019-04-10T00:09:51.663Z,12.07
2019-04-10T00:12:38.774Z,12.30
2019-04-10T00:15:24.946Z,12.27
2019-04-10T00:18:11.936Z,13.23
2019-04-10T00:20:58.621Z,13.37
2019-04-10T00:23:44.732Z,11.83
2019-04-10T00:26:30.512Z,13.60
2019-04-10T00:29:16.444Z,12.33
2019-04-10T00:32:03.688Z,12.60
2019-04-10T00:34:49.892Z,11.97
2019-04-10T00:37:35.539Z,13.03
2019-04-10T00:40:21.521Z,11.97
2019-04-10T00:43:07.124Z,14.03
2019-04-10T00:45:53.513Z,12.30
2019-04-10T00:48:41.760Z,11.77
2019-04-10T00:51:28.388Z,13.10
2019-04-10T00:54:14.691Z,13.30
2019-04-10T00:57:01.095Z,14.80
2019-04-10T00:59:48.365Z,13.63
2019-04-10T01:02:34.510Z,12.37
2019-04-10T01:05:20.759Z,16.13
2019-04-10T01:08:06.726Z,14.50
2019-04-10T01:10:52.814Z,14.03
2019-04-10T01:13:39.037Z,13.20
2019-04-10T01:16:25.144Z,15.60
2019-04-10T01:19:12.065Z,13.10
2019-04-10T01:21:58.926Z,12.83
2019-04-10T01:24:46.047Z,15.67
2019-04-10T01:27:32.002Z,13.20
2019-04-10T01:30:18.235Z,14.73
2019-04-10T01:33:04.167Z,14.03
2019-04-10T01:35:50.845Z,14.53
2019-04-10T01:38:37.815Z,13.47
2019-04-10T01:41:23.896Z,16.33
2019-04-10T01:44:09.595Z,14.60
2019-04-10T01:46:56.965Z,15.30
2019-04-10T01:49:44.172Z,13.30
2019-04-10T01:52:31.038Z,13.13
2019-04-10T01:55:25.236Z,11.17
2019-04-10T01:58:08.637Z,14.83
2019-04-10T02:01:08.239Z,15.07
2019-04-10T02:03:54.348Z,12.83
2019-04-10T02:06:41.191Z,12.93
2019-04-10T02:09:27.657Z,14.07
2019-04-10T02:12:14.495Z,13.03
2019-04-10T02:15:00.721Z,14.97
2019-04-10T02:17:46.754Z,11.50
2019-04-10T02:20:32.362Z,11.57
2019-04-10T02:23:19.335Z,9.17
2019-04-10T02:26:07.448Z,13.03
2019-04-10T02:28:53.566Z,14.03
2019-04-10T02:31:40.277Z,11.97
2019-04-10T02:34:26.506Z,13.77
2019-04-10T02:37:12.879Z,13.50
2019-04-10T02:40:02.351Z,13.13
2019-04-10T02:42:47.350Z,10.50
2019-04-10T02:45:34.524Z,10.23
2019-04-10T02:48:21.268Z,10.90
2019-04-10T02:51:09.595Z,10.40
2019-04-10T02:53:56.154Z,13.90
2019-04-10T02:56:45.596Z,9.87
2019-04-10T02:59:31.553Z,10.90
2019-04-10T03:02:17.862Z,13.40
2019-04-10T03:05:04.631Z,9.30
2019-04-10T03:07:52.460Z,12.27
2019-04-10T03:10:44.105Z,9.63
2019-04-10T03:13:27.543Z,12.97
2019-04-10T03:16:14.561Z,11.13
2019-04-10T03:19:02.005Z,10.30
2019-04-10T03:21:47.605Z,9.33
2019-04-10T03:24:33.605Z,9.23
2019-04-10T03:27:20.546Z,12.83
2019-04-10T03:30:08.567Z,9.03
2019-04-10T03:33:15.881Z,10.57
2019-04-10T03:35:58.889Z,10.83
2019-04-10T03:38:55.406Z,10.10
2019-04-10T03:41:33.201Z,10.03
2019-04-10T03:44:19.341Z,10.43
2019-04-10T03:47:05.082Z,8.87
2019-04-10T03:49:50.626Z,9.10
2019-04-10T03:52:37.911Z,10.03
2019-04-10T03:55:25.066Z,9.40
2019-04-10T03:58:11.354Z,10.43
2019-04-10T04:00:58.488Z,11.23
2019-04-10T04:03:44.840Z,9.73
2019-04-10T04:06:31.461Z,9.67
2019-04-10T04:09:17.703Z,10.40
2019-04-10T04:12:04.462Z,9.70
2019-04-10T04:14:50.089Z,7.93
2019-04-10T04:17:36.031Z,8.63
2019-04-10T04:20:23.170Z,8.90
2019-04-10T04:23:09.596Z,10.53
2019-04-10T04:25:55.564Z,11.13
2019-04-10T04:28:41.900Z,10.90
2019-04-10T04:31:27.758Z,9.63
2019-04-10T04:34:14.225Z,8.03
2019-04-10T04:37:00.970Z,8.40
2019-04-10T04:39:47.538Z,9.67
2019-04-10T04:42:33.582Z,8.83
2019-04-10T04:45:19.534Z,10.67
2019-04-10T04:48:05.554Z,10.20
2019-04-10T04:50:52.204Z,13.07
2019-04-10T04:53:39.832Z,10.53
2019-04-10T04:56:26.157Z,8.27
2019-04-10T04:59:12.264Z,8.37
2019-04-10T05:01:58.558Z,8.47
2019-04-10T05:04:44.398Z,10.50
2019-04-10T05:07:31.074Z,10.07
2019-04-10T05:10:17.462Z,9.77
2019-04-10T05:13:04.057Z,10.33
2019-04-10T05:15:49.705Z,9.40
2019-04-10T05:18:37.259Z,11.23
2019-04-10T05:21:23.231Z,11.17
2019-04-10T05:24:09.069Z,10.17
2019-04-10T05:26:55.657Z,7.90
2019-04-10T05:29:50.583Z,13.40
2019-04-10T05:32:47.274Z,7.23
2019-04-10T05:35:34.827Z,8.80
2019-04-10T05:38:21.286Z,7.63
2019-04-10T05:41:07.098Z,7.70
2019-04-10T05:43:53.012Z,8.67
2019-04-10T05:46:38.882Z,10.57
2019-04-10T05:49:24.990Z,11.90
2019-04-10T05:52:11.119Z,6.90
2019-04-10T05:54:57.798Z,9.23
2019-04-10T05:57:44.772Z,10.07
2019-04-10T06:00:30.999Z,11.80
2019-04-10T06:03:16.583Z,13.30
2019-04-10T06:06:02.807Z,7.70
2019-04-10T06:08:49.130Z,9.47
2019-04-10T06:11:43.849Z,11.37
2019-04-10T06:14:30.428Z,7.07
2019-04-10T06:17:16.428Z,12.17
2019-04-10T06:20:03.419Z,7.70
2019-04-10T06:22:50.612Z,10.57
2019-04-10T06:25:38.918Z,7.23
2019-04-10T06:28:25.879Z,9.30
2019-04-10T06:31:12.535Z,9.37
2019-04-10T06:33:58.599Z,9.90
2019-04-10T06:36:44.095Z,8.13
2019-04-10T06:39:30.965Z,10.03
2019-04-10T06:42:17.201Z,10.47
2019-04-10T06:45:04.541Z,8.40
2019-04-10T06:47:50.864Z,8.10
2019-04-10T06:50:37.229Z,9.70
2019-04-10T06:53:23.166Z,7.10
2019-04-10T06:56:09.909Z,10.50
2019-04-10T06:58:56.742Z,7.27
2019-04-10T07:01:48.668Z,8.33
2019-04-10T07:04:43.159Z,8.90
2019-04-10T07:07:20.327Z,10.60
2019-04-10T07:10:20.635Z,7.60
2019-04-10T07:12:53.769Z,9.20
2019-04-10T07:15:42.176Z,9.93
2019-04-10T07:18:28.298Z,6.57
2019-04-10T07:21:14.726Z,10.03
2019-04-10T07:24:04.979Z,7.97
2019-04-10T07:26:49.421Z,8.07
2019-04-10T07:29:36.302Z,8.93
2019-04-10T07:32:24.273Z,8.03
2019-04-10T07:35:14.003Z,9.77
2019-04-10T07:37:59.690Z,8.97
2019-04-10T07:40:45.068Z,8.60
2019-04-10T07:43:32.063Z,9.67
2019-04-10T07:46:17.871Z,8.27
2019-04-10T07:49:03.796Z,11.50
2019-04-10T07:51:49.248Z,10.13
2019-04-10T07:54:35.100Z,8.70
2019-04-10T07:57:22.469Z,10.67
2019-04-10T08:00:13.412Z,10.73
2019-04-10T08:02:59.572Z,17.53
2019-04-10T08:05:46.047Z,10.83
2019-04-10T08:08:32.359Z,11.23
2019-04-10T08:11:21.891Z,9.10
2019-04-10T08:14:08.441Z,10.43
2019-04-10T08:16:55.608Z,10.20
2019-04-10T08:19:41.567Z,10.53
2019-04-10T08:22:28.690Z,11.03
2019-04-10T08:25:16.318Z,13.30
2019-04-10T08:28:02.803Z,8.93
2019-04-10T08:30:48.773Z,14.63
2019-04-10T08:33:36.588Z,13.47
2019-04-10T08:36:23.510Z,10.37
2019-04-10T08:39:09.339Z,11.07
2019-04-10T08:41:55.659Z,11.83
2019-04-10T08:44:42.482Z,11.30
2019-04-10T08:47:28.581Z,12.67
2019-04-10T08:50:14.780Z,12.43
2019-04-10T08:53:00.624Z,11.03
2019-04-10T08:55:47.083Z,11.93
2019-04-10T08:58:35.333Z,10.90
2019-04-10T09:01:22.956Z,15.50
2019-04-10T09:04:09.384Z,13.43
2019-04-10T09:06:55.861Z,13.50
2019-04-10T09:09:42.290Z,13.47
2019-04-10T09:12:29.605Z,12.07
2019-04-10T09:15:16.345Z,18.40
2019-04-10T09:18:03.969Z,12.67
2019-04-10T09:20:53.764Z,14.23
2019-04-10T09:23:48.255Z,12.83
2019-04-10T09:26:28.609Z,14.67
2019-04-10T09:29:16.082Z,18.43
2019-04-10T09:32:02.930Z,14.50
2019-04-10T09:34:49.882Z,17.17
2019-04-10T09:37:36.361Z,12.10
2019-04-10T09:40:24.536Z,11.40
2019-04-10T09:43:11.335Z,10.93
2019-04-10T09:45:57.648Z,11.37
2019-04-10T09:48:44.645Z,12.83
2019-04-10T09:51:31.905Z,14.47
2019-04-10T09:54:19.046Z,12.17
2019-04-10T09:57:05.643Z,13.07
2019-04-10T09:59:52.679Z,12.27
2019-04-10T10:02:39.953Z,12.53
2019-04-10T10:05:26.564Z,12.10
2019-04-10T10:08:14.218Z,13.37
2019-04-10T10:11:01.916Z,12.33
2019-04-10T10:13:48.555Z,15.27
2019-04-10T10:16:35.868Z,12.27
2019-04-10T10:19:25.877Z,15.50
2019-04-10T10:22:12.790Z,12.60
2019-04-10T10:25:00.253Z,13.57
2019-04-10T10:27:56.560Z,14.30
2019-04-10T10:30:43.954Z,12.97
2019-04-10T10:33:31.947Z,12.40
2019-04-10T10:36:18.678Z,13.20
2019-04-10T10:39:14.793Z,11.80
2019-04-10T10:42:01.415Z,15.03
2019-04-10T10:44:48.084Z,12.23
2019-04-10T10:47:36.465Z,13.87
2019-04-10T10:50:23.635Z,14.50
2019-04-10T10:53:10.305Z,12.27
2019-04-10T10:55:56.446Z,13.93
2019-04-10T10:58:43.960Z,13.03
2019-04-10T11:01:30.359Z,15.53
2019-04-10T11:04:17.450Z,13.63
2019-04-10T11:07:04.686Z,14.20
2019-04-10T11:09:51.015Z,14.07
2019-04-10T11:12:38.371Z,13.60
2019-04-10T11:15:26.271Z,17.23
2019-04-10T11:18:13.837Z,16.13
2019-04-10T11:21:08.309Z,14.40
2019-04-10T11:23:53.180Z,14.73
2019-04-10T11:26:40.026Z,13.23
2019-04-10T11:29:26.741Z,14.33
2019-04-10T11:32:14.608Z,14.80
2019-04-10T11:35:03.164Z,12.70
2019-04-10T11:37:51.400Z,12.10
2019-04-10T11:40:41.419Z,11.57
2019-04-10T11:43:30.204Z,12.37
2019-04-10T11:46:20.112Z,14.27
2019-04-10T11:49:07.493Z,14.73
2019-04-10T11:51:56.066Z,13.17
2019-04-10T11:54:43.094Z,11.73
2019-04-10T11:57:32.088Z,11.97
2019-04-10T12:00:26.763Z,12.90
2019-04-10T12:03:15.990Z,12.63
2019-04-10T12:06:04.273Z,14.63
2019-04-10T12:09:13.238Z,12.07
2019-04-10T12:11:41.527Z,12.20
2019-04-10T12:14:27.928Z,14.30
2019-04-10T12:17:16.019Z,12.03
2019-04-10T12:20:04.832Z,11.60
2019-04-10T12:22:50.807Z,11.50
2019-04-10T12:25:38.794Z,12.03
2019-04-10T12:28:25.598Z,11.60
2019-04-10T12:31:12.043Z,13.00
2019-04-10T12:34:01.358Z,13.57
2019-04-10T12:36:47.556Z,12.93
2019-04-10T12:39:33.567Z,14.17
2019-04-10T12:42:21.868Z,11.37
2019-04-10T12:45:08.365Z,10.90
2019-04-10T12:47:54.778Z,12.73
2019-04-10T12:50:41.917Z,11.13
2019-04-10T12:53:29.610Z,12.20
2019-04-10T12:56:15.771Z,14.03
2019-04-10T12:59:03.358Z,12.67
2019-04-10T13:01:50.918Z,14.67
2019-04-10T13:04:44.977Z,12.10
2019-04-10T13:07:31.677Z,11.93
2019-04-10T13:10:23.153Z,11.83
2019-04-10T13:13:13.653Z,12.17
2019-04-10T13:16:01.422Z,11.80
2019-04-10T13:18:47.248Z,11.83
2019-04-10T13:21:34.675Z,13.60
2019-04-10T13:24:21.969Z,12.63
2019-04-10T13:27:07.900Z,10.90
2019-04-10T13:29:54.390Z,11.07
2019-04-10T13:32:40.363Z,10.83
2019-04-10T13:35:26.748Z,11.20
2019-04-10T13:38:23.154Z,12.80
2019-04-10T13:41:02.331Z,13.57
2019-04-10T13:43:47.959Z,14.43
2019-04-10T13:46:34.030Z,12.57
2019-04-10T13:49:20.607Z,10.87
2019-04-10T13:52:08.035Z,9.87
2019-04-10T13:54:54.756Z,10.37
2019-04-10T13:57:42.377Z,9.50
2019-04-10T14:00:39.612Z,9.87
2019-04-10T14:03:25.946Z,9.10
2019-04-10T14:06:13.590Z,9.47
2019-04-10T14:09:15.137Z,9.23
2019-04-10T14:11:49.412Z,9.73
2019-04-10T14:14:35.110Z,9.00
2019-04-10T14:17:24.718Z,10.23
2019-04-10T14:20:15.229Z,9.37
2019-04-10T14:23:22.255Z,10.40
2019-04-10T14:26:46.810Z,9.47
2019-04-10T14:29:28.041Z,8.97
2019-04-10T14:32:23.211Z,8.63
2019-04-10T14:35:11.351Z,14.53
2019-04-10T14:37:57.305Z,8.97
2019-04-10T14:40:47.233Z,8.30
2019-04-10T14:43:32.891Z,9.60
2019-04-10T14:46:18.836Z,9.10
2019-04-10T14:49:05.201Z,8.43
2019-04-10T14:51:50.693Z,9.87
2019-04-10T14:54:37.548Z,9.40
2019-04-10T14:57:23.584Z,9.10
2019-04-10T15:00:15.467Z,9.53
2019-04-10T15:03:02.226Z,9.00
2019-04-10T15:05:52.299Z,8.43
2019-04-10T15:08:36.313Z,10.13
2019-04-10T15:11:22.486Z,10.13
2019-04-10T15:14:08.933Z,8.97
2019-04-10T15:17:01.057Z,8.30
2019-04-10T15:19:42.659Z,10.17
2019-04-10T15:22:29.394Z,8.77
2019-04-10T15:25:15.600Z,8.30
2019-04-10T15:28:02.325Z,9.47
2019-04-10T15:30:48.317Z,8.30
2019-04-10T15:33:33.816Z,8.67
2019-04-10T15:36:19.997Z,8.80
2019-04-10T15:39:07.140Z,9.93
2019-04-10T15:41:53.629Z,9.47
2019-04-10T15:44:40.711Z,9.27
2019-04-10T15:47:27.098Z,9.53
2019-04-10T15:50:15.794Z,8.83
2019-04-10T15:53:02.222Z,9.17
2019-04-10T15:55:49.599Z,8.23
2019-04-10T15:58:35.587Z,9.17
2019-04-10T16:01:21.643Z,8.63
2019-04-10T16:04:08.620Z,8.33
2019-04-10T16:06:55.975Z,10.00
2019-04-10T16:09:47.424Z,7.67
2019-04-10T16:12:30.513Z,9.13
2019-04-10T16:15:17.325Z,7.63
2019-04-10T16:18:13.717Z,9.50
2019-04-10T16:20:59.966Z,9.53
2019-04-10T16:23:50.407Z,8.67
2019-04-10T16:26:36.469Z,7.80
2019-04-10T16:29:25.229Z,7.80
2019-04-10T16:32:12.720Z,9.20
2019-04-10T16:34:58.877Z,8.60
2019-04-10T16:37:44.921Z,11.40
2019-04-10T16:40:31.887Z,8.63
2019-04-10T16:43:18.064Z,8.20
2019-04-10T16:46:04.814Z,7.63
2019-04-10T16:48:50.533Z,7.60
2019-04-10T16:51:37.126Z,8.27
2019-04-10T16:54:22.952Z,8.77
2019-04-10T16:57:09.985Z,9.10
2019-04-10T16:59:57.350Z,8.07
2019-04-10T17:02:44.355Z,8.57
2019-04-10T17:05:33.276Z,9.33
2019-04-10T17:08:19.626Z,8.63
2019-04-10T17:11:07.205Z,8.30
2019-04-10T17:13:53.021Z,8.27
2019-04-10T17:16:39.946Z,8.20
2019-04-10T17:19:27.434Z,8.90
2019-04-10T17:22:14.465Z,6.77
2019-04-10T17:25:02.087Z,13.43
2019-04-10T17:27:48.134Z,9.63
2019-04-10T17:30:33.929Z,6.87
2019-04-10T17:33:20.685Z,7.20
2019-04-10T17:36:07.718Z,7.73
2019-04-10T17:38:53.656Z,10.27
2019-04-10T17:41:39.739Z,6.70
2019-04-10T17:44:25.658Z,6.43
2019-04-10T17:47:12.595Z,7.47
2019-04-10T17:50:00.149Z,8.20
2019-04-10T17:52:47.193Z,6.20
2019-04-10T17:55:33.680Z,6.77
2019-04-10T17:58:21.285Z,5.57
2019-04-10T18:01:10.746Z,7.23
2019-04-10T18:04:00.270Z,7.07
2019-04-10T18:06:59.555Z,6.70
2019-04-10T18:09:46.679Z,8.33
2019-04-10T18:12:34.919Z,8.43
2019-04-10T18:15:21.978Z,6.37
2019-04-10T18:18:08.290Z,6.07
2019-04-10T18:20:54.123Z,7.33
2019-04-10T18:23:41.822Z,6.30
2019-04-10T18:26:27.841Z,5.33
2019-04-10T18:29:14.846Z,8.93
2019-04-10T18:32:05.495Z,11.37
2019-04-10T18:34:52.156Z,6.83
2019-04-10T18:37:39.171Z,11.03
2019-04-10T18:40:25.789Z,9.57
2019-04-10T18:43:11.956Z,8.80
2019-04-10T18:46:07.889Z,11.33
2019-04-10T18:48:47.175Z,10.00
2019-04-10T18:51:34.077Z,10.03
2019-04-10T18:54:22.945Z,9.37
2019-04-10T18:57:09.380Z,9.40
2019-04-10T19:00:15.388Z,9.43
2019-04-10T19:03:32.816Z,9.90
2019-04-10T19:06:24.799Z,10.37
2019-04-10T19:09:19.409Z,7.90
2019-04-10T19:11:58.487Z,7.63
2019-04-10T19:14:46.626Z,8.23
2019-04-10T19:17:33.295Z,7.80
2019-04-10T19:20:22.842Z,10.63
2019-04-10T19:23:09.695Z,8.43
2019-04-10T19:25:56.732Z,9.30
2019-04-10T19:28:45.097Z,11.53
2019-04-10T19:31:33.358Z,6.87
2019-04-10T19:34:18.775Z,9.10
2019-04-10T19:37:06.132Z,7.53
2019-04-10T19:39:52.357Z,9.13
2019-04-10T19:42:39.625Z,6.90
2019-04-10T19:45:26.298Z,11.33
2019-04-10T19:48:12.383Z,6.60
2019-04-10T19:50:58.059Z,8.77
2019-04-10T19:53:44.017Z,7.17
2019-04-10T19:56:30.813Z,7.80
2019-04-10T19:59:16.739Z,9.93
2019-04-10T20:02:03.390Z,8.10
2019-04-10T20:04:50.576Z,7.63
2019-04-10T20:07:37.529Z,7.80
2019-04-10T20:10:24.003Z,6.20
2019-04-10T20:13:10.340Z,9.40
2019-04-10T20:15:58.637Z,6.77
2019-04-10T20:18:45.259Z,5.90
2019-04-10T20:21:32.843Z,8.40
2019-04-10T20:24:18.890Z,5.33
2019-04-10T20:27:07.779Z,5.77
2019-04-10T20:29:55.162Z,6.83
2019-04-10T20:32:41.871Z,5.73
2019-04-10T20:35:28.621Z,8.13
2019-04-10T20:38:15.469Z,5.57
2019-04-10T20:41:02.430Z,7.03
2019-04-10T20:43:48.376Z,5.73
2019-04-10T20:46:34.307Z,7.07
2019-04-10T20:49:20.418Z,6.37
2019-04-10T20:52:06.491Z,9.07
2019-04-10T20:54:53.149Z,5.57
2019-04-10T20:57:39.494Z,6.27
2019-04-10T21:00:41.219Z,5.27
2019-04-10T21:03:27.394Z,6.77
2019-04-10T21:06:15.604Z,8.03
2019-04-10T21:09:05.354Z,6.07
2019-04-10T21:12:00.501Z,6.77
2019-04-10T21:14:38.652Z,8.77
2019-04-10T21:17:24.997Z,8.47
2019-04-10T21:20:13.152Z,9.03
2019-04-10T21:22:58.485Z,5.20
2019-04-10T21:25:45.619Z,6.93
2019-04-10T21:28:32.082Z,5.63
2019-04-10T21:31:37.168Z,9.67
2019-04-10T21:34:28.660Z,7.70
2019-04-10T21:37:14.353Z,7.60
2019-04-10T21:40:00.484Z,6.30
2019-04-10T21:42:47.615Z,8.17
2019-04-10T21:45:34.882Z,6.70
2019-04-10T21:48:22.376Z,6.03
2019-04-10T21:51:08.805Z,7.13
2019-04-10T21:53:55.881Z,5.77
2019-04-10T21:56:43.112Z,6.03
2019-04-10T21:59:29.244Z,7.03
2019-04-10T22:02:15.348Z,7.17
2019-04-10T22:05:03.872Z,5.57
2019-04-10T22:08:07.135Z,6.20
2019-04-10T22:10:52.828Z,4.60
2019-04-10T22:13:39.854Z,6.07
2019-04-10T22:16:26.480Z,6.27
2019-04-10T22:19:12.281Z,8.60
2019-04-10T22:21:58.463Z,5.37
2019-04-10T22:24:44.066Z,4.97
2019-04-10T22:27:29.765Z,6.50
2019-04-10T22:30:16.937Z,7.57
2019-04-10T22:33:03.300Z,7.90
2019-04-10T22:35:50.392Z,6.10
2019-04-10T22:38:37.800Z,6.40
2019-04-10T22:41:28.518Z,5.87
2019-04-10T22:44:11.763Z,8.73
2019-04-10T22:46:58.759Z,5.97
2019-04-10T22:49:45.082Z,5.53
2019-04-10T22:52:32.377Z,7.70
2019-04-10T22:55:19.516Z,8.47
2019-04-10T22:58:05.568Z,6.43
2019-04-10T23:00:51.123Z,9.60
2019-04-10T23:03:37.402Z,5.67
2019-04-10T23:06:23.060Z,7.17
2019-04-10T23:09:10.447Z,6.23
2019-04-10T23:11:56.741Z,6.17
2019-04-10T23:14:42.793Z,9.30
2019-04-10T23:17:28.587Z,7.60
2019-04-10T23:20:16.496Z,5.40
2019-04-10T23:23:03.076Z,10.50
2019-04-10T23:25:49.043Z,8.33
2019-04-10T23:28:35.783Z,8.53
2019-04-10T23:31:21.674Z,7.90
2019-04-10T23:34:08.367Z,4.90
2019-04-10T23:36:54.761Z,9.77
2019-04-10T23:39:40.605Z,6.20
2019-04-10T23:42:28.236Z,6.60
2019-04-10T23:45:15.507Z,6.30
2019-04-10T23:48:01.709Z,6.83
2019-04-10T23:50:48.293Z,6.40
2019-04-10T23:53:38.364Z,6.10
2019-04-10T23:56:24.679Z,5.80
2019-04-10T23:59:10.721Z,6.97
